sensor_id;sensor_type;location;lat;lon;timestamp;P1;durP1;ratioP1;P2;durP2;ratioP2
37349;SDS011;23231;52.358;4.926;2022-11-20T00:00:18;19.40;;;9.10;;
37349;SDS011;23231;52.358;4.926;2022-11-20T00:05:19;18.73;;;9.57;;
37349;SDS011;23231;52.358;4.926;2022-11-20T00:10:20;17.33;;;8.73;;
37349;SDS011;23231;52.358;4.926;2022-11-20T00:15:21;19.10;;;9.57;;
37349;SDS011;23231;52.358;4.926;2022-11-20T00:20:21;18.33;;;8.23;;
37349;SDS011;23231;52.358;4.926;2022-11-20T00:25:22;18.27;;;8.40;;
37349;SDS011;23231;52.358;4.926;2022-11-20T00:30:22;17.03;;;8.13;;
37349;SDS011;23231;52.358;4.926;2022-11-20T00:35:22;18.43;;;9.00;;
37349;SDS011;23231;52.358;4.926;2022-11-20T00:40:23;19.37;;;8.67;;
37349;SDS011;23231;52.358;4.926;2022-11-20T00:45:23;19.17;;;9.57;;
37349;SDS011;23231;52.358;4.926;2022-11-20T00:50:23;17.77;;;8.93;;
37349;SDS011;23231;52.358;4.926;2022-11-20T00:55:24;17.53;;;9.07;;
37349;SDS011;23231;52.358;4.926;2022-11-20T01:00:24;18.43;;;8.67;;
37349;SDS011;23231;52.358;4.926;2022-11-20T01:05:25;16.70;;;8.57;;
37349;SDS011;23231;52.358;4.926;2022-11-20T01:10:25;20.67;;;9.97;;
37349;SDS011;23231;52.358;4.926;2022-11-20T01:15:25;19.23;;;10.03;;
37349;SDS011;23231;52.358;4.926;2022-11-20T01:20:26;18.33;;;9.20;;
37349;SDS011;23231;52.358;4.926;2022-11-20T01:25:26;17.50;;;8.57;;
37349;SDS011;23231;52.358;4.926;2022-11-20T01:30:26;16.27;;;8.67;;
37349;SDS011;23231;52.358;4.926;2022-11-20T01:35:28;17.80;;;9.03;;
37349;SDS011;23231;52.358;4.926;2022-11-20T01:40:28;16.63;;;8.80;;
37349;SDS011;23231;52.358;4.926;2022-11-20T01:50:52;21.90;;;8.93;;
37349;SDS011;23231;52.358;4.926;2022-11-20T01:55:54;19.73;;;8.80;;
37349;SDS011;23231;52.358;4.926;2022-11-20T02:00:55;18.07;;;9.27;;
37349;SDS011;23231;52.358;4.926;2022-11-20T02:11:19;16.57;;;8.40;;
37349;SDS011;23231;52.358;4.926;2022-11-20T02:16:25;19.57;;;9.40;;
37349;SDS011;23231;52.358;4.926;2022-11-20T02:31:51;17.63;;;8.87;;
37349;SDS011;23231;52.358;4.926;2022-11-20T02:36:51;19.20;;;9.33;;
37349;SDS011;23231;52.358;4.926;2022-11-20T02:41:55;20.20;;;9.33;;
37349;SDS011;23231;52.358;4.926;2022-11-20T02:46:59;20.10;;;10.43;;
37349;SDS011;23231;52.358;4.926;2022-11-20T02:51:59;17.43;;;8.93;;
37349;SDS011;23231;52.358;4.926;2022-11-20T02:57:00;20.80;;;9.43;;
37349;SDS011;23231;52.358;4.926;2022-11-20T03:02:00;21.73;;;10.30;;
37349;SDS011;23231;52.358;4.926;2022-11-20T03:07:01;20.00;;;9.33;;
37349;SDS011;23231;52.358;4.926;2022-11-20T03:12:01;21.03;;;9.53;;
37349;SDS011;23231;52.358;4.926;2022-11-20T03:17:01;22.17;;;9.63;;
37349;SDS011;23231;52.358;4.926;2022-11-20T03:22:02;20.97;;;9.93;;
37349;SDS011;23231;52.358;4.926;2022-11-20T03:27:03;17.73;;;9.70;;
37349;SDS011;23231;52.358;4.926;2022-11-20T03:32:03;21.43;;;10.40;;
37349;SDS011;23231;52.358;4.926;2022-11-20T03:37:03;22.63;;;10.43;;
37349;SDS011;23231;52.358;4.926;2022-11-20T03:42:04;22.03;;;11.20;;
37349;SDS011;23231;52.358;4.926;2022-11-20T03:47:24;19.37;;;9.57;;
37349;SDS011;23231;52.358;4.926;2022-11-20T03:52:24;21.50;;;9.80;;
37349;SDS011;23231;52.358;4.926;2022-11-20T03:57:25;20.27;;;9.53;;
37349;SDS011;23231;52.358;4.926;2022-11-20T04:02:25;22.13;;;10.00;;
37349;SDS011;23231;52.358;4.926;2022-11-20T04:07:26;19.93;;;9.67;;
37349;SDS011;23231;52.358;4.926;2022-11-20T04:12:26;19.80;;;9.77;;
37349;SDS011;23231;52.358;4.926;2022-11-20T04:17:26;19.87;;;9.30;;
37349;SDS011;23231;52.358;4.926;2022-11-20T04:22:27;21.93;;;10.33;;
37349;SDS011;23231;52.358;4.926;2022-11-20T04:27:27;22.10;;;12.00;;
37349;SDS011;23231;52.358;4.926;2022-11-20T04:32:27;21.77;;;10.87;;
37349;SDS011;23231;52.358;4.926;2022-11-20T04:37:28;24.03;;;11.57;;
37349;SDS011;23231;52.358;4.926;2022-11-20T04:42:28;23.63;;;10.57;;
37349;SDS011;23231;52.358;4.926;2022-11-20T04:47:29;22.50;;;10.53;;
37349;SDS011;23231;52.358;4.926;2022-11-20T04:52:29;22.67;;;11.17;;
37349;SDS011;23231;52.358;4.926;2022-11-20T04:57:29;25.17;;;11.30;;
37349;SDS011;23231;52.358;4.926;2022-11-20T05:02:31;22.20;;;10.43;;
37349;SDS011;23231;52.358;4.926;2022-11-20T05:07:32;21.40;;;10.73;;
37349;SDS011;23231;52.358;4.926;2022-11-20T05:12:32;21.53;;;10.43;;
37349;SDS011;23231;52.358;4.926;2022-11-20T05:17:32;21.87;;;10.60;;
37349;SDS011;23231;52.358;4.926;2022-11-20T05:22:33;22.87;;;11.07;;
37349;SDS011;23231;52.358;4.926;2022-11-20T05:27:33;23.00;;;11.40;;
37349;SDS011;23231;52.358;4.926;2022-11-20T05:32:33;24.00;;;11.40;;
37349;SDS011;23231;52.358;4.926;2022-11-20T05:37:34;21.90;;;10.70;;
37349;SDS011;23231;52.358;4.926;2022-11-20T05:42:34;23.40;;;11.50;;
37349;SDS011;23231;52.358;4.926;2022-11-20T05:47:35;23.57;;;10.73;;
37349;SDS011;23231;52.358;4.926;2022-11-20T05:52:36;23.50;;;10.27;;
37349;SDS011;23231;52.358;4.926;2022-11-20T05:57:36;21.23;;;11.53;;
37349;SDS011;23231;52.358;4.926;2022-11-20T06:02:36;21.97;;;10.67;;
37349;SDS011;23231;52.358;4.926;2022-11-20T06:07:37;23.57;;;11.40;;
37349;SDS011;23231;52.358;4.926;2022-11-20T06:12:37;22.73;;;11.50;;
37349;SDS011;23231;52.358;4.926;2022-11-20T06:17:37;22.30;;;11.73;;
37349;SDS011;23231;52.358;4.926;2022-11-20T06:22:38;26.50;;;12.87;;
37349;SDS011;23231;52.358;4.926;2022-11-20T06:27:38;26.80;;;12.07;;
37349;SDS011;23231;52.358;4.926;2022-11-20T06:32:38;24.63;;;12.20;;
37349;SDS011;23231;52.358;4.926;2022-11-20T06:37:39;26.67;;;12.40;;
37349;SDS011;23231;52.358;4.926;2022-11-20T06:42:39;25.43;;;13.47;;
37349;SDS011;23231;52.358;4.926;2022-11-20T06:47:40;24.60;;;11.73;;
37349;SDS011;23231;52.358;4.926;2022-11-20T06:52:40;25.00;;;12.43;;
37349;SDS011;23231;52.358;4.926;2022-11-20T06:57:40;24.17;;;12.70;;
37349;SDS011;23231;52.358;4.926;2022-11-20T07:02:41;26.73;;;12.30;;
37349;SDS011;23231;52.358;4.926;2022-11-20T07:07:41;25.03;;;12.23;;
37349;SDS011;23231;52.358;4.926;2022-11-20T07:12:42;25.00;;;13.40;;
37349;SDS011;23231;52.358;4.926;2022-11-20T07:17:42;26.50;;;12.90;;
37349;SDS011;23231;52.358;4.926;2022-11-20T07:22:42;27.20;;;13.10;;
37349;SDS011;23231;52.358;4.926;2022-11-20T07:27:43;26.60;;;12.17;;
37349;SDS011;23231;52.358;4.926;2022-11-20T07:32:47;24.80;;;12.37;;
37349;SDS011;23231;52.358;4.926;2022-11-20T07:37:48;28.70;;;14.37;;
37349;SDS011;23231;52.358;4.926;2022-11-20T07:47:52;26.97;;;12.93;;
37349;SDS011;23231;52.358;4.926;2022-11-20T07:52:59;26.63;;;13.40;;
37349;SDS011;23231;52.358;4.926;2022-11-20T07:58:00;29.80;;;13.30;;
37349;SDS011;23231;52.358;4.926;2022-11-20T08:03:02;23.87;;;13.07;;
37349;SDS011;23231;52.358;4.926;2022-11-20T08:08:04;25.40;;;13.47;;
37349;SDS011;23231;52.358;4.926;2022-11-20T08:13:04;29.00;;;13.90;;
37349;SDS011;23231;52.358;4.926;2022-11-20T08:18:24;26.80;;;13.50;;
37349;SDS011;23231;52.358;4.926;2022-11-20T08:23:24;26.97;;;13.97;;
37349;SDS011;23231;52.358;4.926;2022-11-20T08:28:24;30.30;;;14.23;;
37349;SDS011;23231;52.358;4.926;2022-11-20T08:33:25;30.40;;;15.50;;
37349;SDS011;23231;52.358;4.926;2022-11-20T08:38:25;26.23;;;14.23;;
37349;SDS011;23231;52.358;4.926;2022-11-20T08:43:25;27.77;;;14.07;;
37349;SDS011;23231;52.358;4.926;2022-11-20T08:48:26;32.43;;;15.50;;
37349;SDS011;23231;52.358;4.926;2022-11-20T08:53:26;28.93;;;14.97;;
37349;SDS011;23231;52.358;4.926;2022-11-20T08:58:27;26.03;;;13.53;;
37349;SDS011;23231;52.358;4.926;2022-11-20T09:03:28;27.87;;;14.80;;
37349;SDS011;23231;52.358;4.926;2022-11-20T09:08:28;29.07;;;14.30;;
37349;SDS011;23231;52.358;4.926;2022-11-20T09:13:29;26.03;;;14.73;;
37349;SDS011;23231;52.358;4.926;2022-11-20T09:18:30;29.07;;;15.53;;
37349;SDS011;23231;52.358;4.926;2022-11-20T09:23:36;27.23;;;14.60;;
37349;SDS011;23231;52.358;4.926;2022-11-20T09:28:37;32.20;;;15.80;;
37349;SDS011;23231;52.358;4.926;2022-11-20T09:33:37;27.73;;;14.47;;
37349;SDS011;23231;52.358;4.926;2022-11-20T09:38:38;27.97;;;14.97;;
37349;SDS011;23231;52.358;4.926;2022-11-20T09:54:18;30.70;;;15.37;;
37349;SDS011;23231;52.358;4.926;2022-11-20T10:04:29;29.30;;;16.23;;
37349;SDS011;23231;52.358;4.926;2022-11-20T10:09:35;28.00;;;14.70;;
37349;SDS011;23231;52.358;4.926;2022-11-20T10:20:16;30.50;;;15.47;;
37349;SDS011;23231;52.358;4.926;2022-11-20T10:25:21;25.93;;;15.20;;
37349;SDS011;23231;52.358;4.926;2022-11-20T10:30:35;26.87;;;15.00;;
37349;SDS011;23231;52.358;4.926;2022-11-20T10:35:40;26.57;;;15.73;;
37349;SDS011;23231;52.358;4.926;2022-11-20T10:40:45;29.83;;;16.38;;
37349;SDS011;23231;52.358;4.926;2022-11-20T11:01:21;24.73;;;14.70;;
37349;SDS011;23231;52.358;4.926;2022-11-20T11:06:34;27.37;;;14.70;;
37349;SDS011;23231;52.358;4.926;2022-11-20T11:11:37;31.90;;;15.10;;
37349;SDS011;23231;52.358;4.926;2022-11-20T11:16:57;30.63;;;15.70;;
37349;SDS011;23231;52.358;4.926;2022-11-20T11:21:58;32.13;;;17.60;;
37349;SDS011;23231;52.358;4.926;2022-11-20T11:27:03;28.30;;;15.63;;
37349;SDS011;23231;52.358;4.926;2022-11-20T11:32:18;31.83;;;17.00;;
37349;SDS011;23231;52.358;4.926;2022-11-20T11:37:20;36.47;;;17.43;;
37349;SDS011;23231;52.358;4.926;2022-11-20T11:42:21;41.27;;;19.43;;
37349;SDS011;23231;52.358;4.926;2022-11-20T11:47:26;34.03;;;17.20;;
37349;SDS011;23231;52.358;4.926;2022-11-20T11:52:31;40.87;;;19.40;;
37349;SDS011;23231;52.358;4.926;2022-11-20T12:07:47;43.60;;;20.83;;
37349;SDS011;23231;52.358;4.926;2022-11-20T12:13:02;45.80;;;21.47;;
37349;SDS011;23231;52.358;4.926;2022-11-20T12:18:18;42.33;;;21.23;;
37349;SDS011;23231;52.358;4.926;2022-11-20T12:39:35;51.67;;;22.90;;
37349;SDS011;23231;52.358;4.926;2022-11-20T13:00:47;53.13;;;24.33;;
37349;SDS011;23231;52.358;4.926;2022-11-20T13:22:12;54.40;;;23.03;;
37349;SDS011;23231;52.358;4.926;2022-11-20T13:43:04;54.60;;;25.10;;
37349;SDS011;23231;52.358;4.926;2022-11-20T13:48:21;58.37;;;25.00;;
37349;SDS011;23231;52.358;4.926;2022-11-20T14:04:19;48.10;;;23.33;;
37349;SDS011;23231;52.358;4.926;2022-11-20T14:09:33;55.93;;;25.33;;
37349;SDS011;23231;52.358;4.926;2022-11-20T14:14:34;61.37;;;26.43;;
37349;SDS011;23231;52.358;4.926;2022-11-20T14:19:36;49.37;;;24.23;;
37349;SDS011;23231;52.358;4.926;2022-11-20T14:24:38;55.40;;;25.73;;
37349;SDS011;23231;52.358;4.926;2022-11-20T14:29:38;57.73;;;26.90;;
37349;SDS011;23231;52.358;4.926;2022-11-20T14:34:41;48.43;;;24.30;;
37349;SDS011;23231;52.358;4.926;2022-11-20T14:39:51;55.20;;;26.07;;
37349;SDS011;23231;52.358;4.926;2022-11-20T14:44:55;52.13;;;24.57;;
37349;SDS011;23231;52.358;4.926;2022-11-20T14:49:57;57.83;;;26.40;;
37349;SDS011;23231;52.358;4.926;2022-11-20T14:54:58;58.37;;;26.37;;
37349;SDS011;23231;52.358;4.926;2022-11-20T15:00:06;61.90;;;28.33;;
37349;SDS011;23231;52.358;4.926;2022-11-20T15:05:10;52.17;;;25.47;;
37349;SDS011;23231;52.358;4.926;2022-11-20T15:15:56;59.23;;;27.53;;
37349;SDS011;23231;52.358;4.926;2022-11-20T15:20:43;72.27;;;30.77;;
37349;SDS011;23231;52.358;4.926;2022-11-20T15:25:44;56.50;;;27.63;;
37349;SDS011;23231;52.358;4.926;2022-11-20T15:30:46;55.47;;;26.80;;
37349;SDS011;23231;52.358;4.926;2022-11-20T15:35:47;58.20;;;27.60;;
37349;SDS011;23231;52.358;4.926;2022-11-20T15:40:48;68.17;;;32.40;;
37349;SDS011;23231;52.358;4.926;2022-11-20T15:45:52;77.27;;;32.33;;
37349;SDS011;23231;52.358;4.926;2022-11-20T15:50:59;71.13;;;29.00;;
37349;SDS011;23231;52.358;4.926;2022-11-20T15:56:03;56.40;;;26.40;;
37349;SDS011;23231;52.358;4.926;2022-11-20T16:01:04;53.47;;;24.77;;
37349;SDS011;23231;52.358;4.926;2022-11-20T16:06:04;61.10;;;28.17;;
37349;SDS011;23231;52.358;4.926;2022-11-20T16:11:05;73.87;;;30.53;;
37349;SDS011;23231;52.358;4.926;2022-11-20T16:16:06;70.40;;;31.60;;
37349;SDS011;23231;52.358;4.926;2022-11-20T16:21:13;69.07;;;29.10;;
37349;SDS011;23231;52.358;4.926;2022-11-20T16:26:16;55.60;;;26.27;;
37349;SDS011;23231;52.358;4.926;2022-11-20T16:31:17;51.17;;;24.90;;
37349;SDS011;23231;52.358;4.926;2022-11-20T16:36:19;53.87;;;25.77;;
37349;SDS011;23231;52.358;4.926;2022-11-20T16:41:21;54.17;;;25.07;;
37349;SDS011;23231;52.358;4.926;2022-11-20T16:46:22;49.67;;;23.10;;
37349;SDS011;23231;52.358;4.926;2022-11-20T16:51:24;56.10;;;28.23;;
37349;SDS011;23231;52.358;4.926;2022-11-20T16:56:26;61.20;;;29.03;;
37349;SDS011;23231;52.358;4.926;2022-11-20T17:01:26;57.93;;;25.73;;
37349;SDS011;23231;52.358;4.926;2022-11-20T17:06:28;46.27;;;24.47;;
37349;SDS011;23231;52.358;4.926;2022-11-20T17:11:30;58.57;;;25.93;;
37349;SDS011;23231;52.358;4.926;2022-11-20T17:16:33;54.40;;;25.70;;
37349;SDS011;23231;52.358;4.926;2022-11-20T17:21:34;60.60;;;29.07;;
37349;SDS011;23231;52.358;4.926;2022-11-20T17:26:35;52.53;;;25.17;;
37349;SDS011;23231;52.358;4.926;2022-11-20T17:31:36;53.83;;;25.47;;
37349;SDS011;23231;52.358;4.926;2022-11-20T17:36:40;53.33;;;25.10;;
37349;SDS011;23231;52.358;4.926;2022-11-20T17:41:44;50.37;;;24.43;;
37349;SDS011;23231;52.358;4.926;2022-11-20T17:46:44;49.83;;;23.93;;
37349;SDS011;23231;52.358;4.926;2022-11-20T17:56:55;54.30;;;25.27;;
37349;SDS011;23231;52.358;4.926;2022-11-20T18:02:13;56.83;;;26.47;;
37349;SDS011;23231;52.358;4.926;2022-11-20T18:07:14;51.90;;;25.30;;
37349;SDS011;23231;52.358;4.926;2022-11-20T18:12:14;49.67;;;24.40;;
37349;SDS011;23231;52.358;4.926;2022-11-20T18:17:15;47.07;;;24.57;;
37349;SDS011;23231;52.358;4.926;2022-11-20T18:22:16;51.40;;;25.43;;
37349;SDS011;23231;52.358;4.926;2022-11-20T18:27:18;71.50;;;28.87;;
37349;SDS011;23231;52.358;4.926;2022-11-20T18:32:20;52.53;;;25.20;;
37349;SDS011;23231;52.358;4.926;2022-11-20T18:37:20;56.43;;;25.70;;
37349;SDS011;23231;52.358;4.926;2022-11-20T18:42:21;53.13;;;26.47;;
37349;SDS011;23231;52.358;4.926;2022-11-20T18:47:40;52.50;;;26.00;;
37349;SDS011;23231;52.358;4.926;2022-11-20T18:52:41;54.47;;;26.07;;
37349;SDS011;23231;52.358;4.926;2022-11-20T18:57:43;52.53;;;24.30;;
37349;SDS011;23231;52.358;4.926;2022-11-20T19:02:43;52.07;;;23.53;;
37349;SDS011;23231;52.358;4.926;2022-11-20T19:07:44;47.17;;;23.40;;
37349;SDS011;23231;52.358;4.926;2022-11-20T19:12:44;48.23;;;24.83;;
37349;SDS011;23231;52.358;4.926;2022-11-20T19:17:44;47.50;;;24.53;;
37349;SDS011;23231;52.358;4.926;2022-11-20T19:22:48;47.27;;;23.87;;
37349;SDS011;23231;52.358;4.926;2022-11-20T19:27:49;47.57;;;23.60;;
37349;SDS011;23231;52.358;4.926;2022-11-20T19:32:49;50.50;;;25.77;;
37349;SDS011;23231;52.358;4.926;2022-11-20T19:37:50;52.67;;;26.43;;
37349;SDS011;23231;52.358;4.926;2022-11-20T19:42:50;68.33;;;31.47;;
37349;SDS011;23231;52.358;4.926;2022-11-20T19:47:51;48.07;;;24.80;;
37349;SDS011;23231;52.358;4.926;2022-11-20T19:52:51;49.63;;;24.73;;
37349;SDS011;23231;52.358;4.926;2022-11-20T19:57:51;50.37;;;25.07;;
37349;SDS011;23231;52.358;4.926;2022-11-20T20:02:52;50.33;;;25.70;;
37349;SDS011;23231;52.358;4.926;2022-11-20T20:07:52;53.70;;;26.57;;
37349;SDS011;23231;52.358;4.926;2022-11-20T20:12:53;60.00;;;27.30;;
37349;SDS011;23231;52.358;4.926;2022-11-20T20:17:53;50.03;;;25.97;;
37349;SDS011;23231;52.358;4.926;2022-11-20T20:22:54;50.90;;;25.57;;
37349;SDS011;23231;52.358;4.926;2022-11-20T20:27:54;55.57;;;28.20;;
37349;SDS011;23231;52.358;4.926;2022-11-20T20:32:59;54.03;;;27.37;;
37349;SDS011;23231;52.358;4.926;2022-11-20T20:37:59;65.97;;;28.43;;
37349;SDS011;23231;52.358;4.926;2022-11-20T20:43:00;55.90;;;26.17;;
37349;SDS011;23231;52.358;4.926;2022-11-20T20:48:00;53.60;;;26.33;;
37349;SDS011;23231;52.358;4.926;2022-11-20T20:53:00;57.07;;;26.37;;
37349;SDS011;23231;52.358;4.926;2022-11-20T20:58:01;59.10;;;27.97;;
37349;SDS011;23231;52.358;4.926;2022-11-20T21:03:01;56.37;;;26.20;;
37349;SDS011;23231;52.358;4.926;2022-11-20T21:08:02;59.47;;;27.07;;
37349;SDS011;23231;52.358;4.926;2022-11-20T21:13:21;60.33;;;28.20;;
37349;SDS011;23231;52.358;4.926;2022-11-20T21:18:22;65.50;;;28.43;;
37349;SDS011;23231;52.358;4.926;2022-11-20T21:23:23;63.00;;;27.57;;
37349;SDS011;23231;52.358;4.926;2022-11-20T21:28:23;67.17;;;28.33;;
37349;SDS011;23231;52.358;4.926;2022-11-20T21:33:24;58.63;;;27.53;;
37349;SDS011;23231;52.358;4.926;2022-11-20T21:38:24;67.60;;;28.70;;
37349;SDS011;23231;52.358;4.926;2022-11-20T21:43:24;61.10;;;28.17;;
37349;SDS011;23231;52.358;4.926;2022-11-20T21:48:29;67.57;;;27.97;;
37349;SDS011;23231;52.358;4.926;2022-11-20T21:53:30;52.40;;;26.33;;
37349;SDS011;23231;52.358;4.926;2022-11-20T21:58:32;77.83;;;30.53;;
37349;SDS011;23231;52.358;4.926;2022-11-20T22:03:33;75.53;;;30.50;;
37349;SDS011;23231;52.358;4.926;2022-11-20T22:08:34;61.77;;;28.30;;
37349;SDS011;23231;52.358;4.926;2022-11-20T22:13:35;67.97;;;30.53;;
37349;SDS011;23231;52.358;4.926;2022-11-20T22:18:55;59.90;;;28.83;;
37349;SDS011;23231;52.358;4.926;2022-11-20T22:23:56;65.53;;;29.23;;
37349;SDS011;23231;52.358;4.926;2022-11-20T22:28:57;72.17;;;30.93;;
37349;SDS011;23231;52.358;4.926;2022-11-20T22:34:00;65.80;;;30.10;;
37349;SDS011;23231;52.358;4.926;2022-11-20T22:39:00;64.60;;;30.63;;
37349;SDS011;23231;52.358;4.926;2022-11-20T22:44:03;72.27;;;31.83;;
37349;SDS011;23231;52.358;4.926;2022-11-20T22:49:06;62.13;;;28.67;;
37349;SDS011;23231;52.358;4.926;2022-11-20T22:54:09;63.37;;;30.03;;
37349;SDS011;23231;52.358;4.926;2022-11-20T22:59:10;76.63;;;32.83;;
37349;SDS011;23231;52.358;4.926;2022-11-20T23:04:10;69.77;;;30.77;;
37349;SDS011;23231;52.358;4.926;2022-11-20T23:09:11;61.37;;;27.73;;
37349;SDS011;23231;52.358;4.926;2022-11-20T23:14:12;65.17;;;28.67;;
37349;SDS011;23231;52.358;4.926;2022-11-20T23:19:13;68.40;;;29.30;;
37349;SDS011;23231;52.358;4.926;2022-11-20T23:24:14;64.53;;;29.80;;
37349;SDS011;23231;52.358;4.926;2022-11-20T23:29:14;105.03;;;35.23;;
37349;SDS011;23231;52.358;4.926;2022-11-20T23:34:15;88.93;;;32.77;;
37349;SDS011;23231;52.358;4.926;2022-11-20T23:39:15;73.10;;;32.00;;
37349;SDS011;23231;52.358;4.926;2022-11-20T23:44:15;69.93;;;28.93;;
37349;SDS011;23231;52.358;4.926;2022-11-20T23:49:16;62.60;;;28.63;;
37349;SDS011;23231;52.358;4.926;2022-11-20T23:54:16;60.30;;;29.27;;
37349;SDS011;23231;52.358;4.926;2022-11-20T23:59:17;73.13;;;30.40;;
